Terminal Aerodrome Forecast
Issued by NWS

Home | Current Version | Previous Version | Text Only | Print | Product List | Glossary On
Versions: 1 2 3 4 5 6 7 8 9 10 11 12 13 14 15 16 17 18 19 20 21 22 23 24 25 26 27 28 29 30 31 32 33 34
000
FTUS45 KCYS 041120
TAFLAR
TAF
KLAR 041120Z 0412/0512 16010KT P6SM BKN070
     FM041400 23007KT P6SM SCT100
     FM041800 32014KT P6SM VCTS BKN060CB
     FM050200 17008KT P6SM SCT050=

USA.gov is the U.S. government's official web portal to all federal, state and local government web resources and services.